Kezdőlap
METAR-TAF:

METAR-TAF

Repülőterek :

Chandler Municipal Airport

Chandler, Arizona, Amerikai Egyesült Államok

földrajzi szélesség: 33-16-09N, földrajzi hosszúság: 111-48-40W, magasság: 379 m

Jelenlegi meteorológiai megfigyelések

A jelentés 6 órával és 26 perccel ezelõtt készült, 23:47 UTC
Keleti szél 8 kt széllökések: 16 kt
Hőmérséklet 42°C
Páratartalom 22%
Légköri nyomás 1003 hPa
Látótávolság: 16.1 km
Szakadozott felhőzet 12000 lábon

METAR: KCHD 212347Z 10008G16KT 10SM BKN120 42/16 A2962

Idő: 23:13 (06:13 UTC)


TAF: hiányzik

Meteorológiai megfigyelések és előrejelzések több, mint 4000 repülőtéren (METAR és TAF jelentéseket).

A térképen piros és sárga pontok jelzik az elérhető meteorológiai állomásokat.

Mozgassa az egeret a pont fölött, hogy megjelenjen az állomás neve.

Azután kattintson az időjárási megfigyelések és előrejelzések megtekintéséhez.

A térkép megváltoztatása: kattintson a fekete keresztel jelölt zöld gombra ráközelítéshez, a vonallal jelölt zöld gombra távolításhoz, vagy a zöld nyilakra a szomszédos térképek eléréséhez.


METAR-TAF: